createdAt,value
2023-08-14T00:00:36.182Z,42.44
2023-08-14T00:05:38.060Z,42.14
2023-08-14T00:10:40.055Z,42.13
2023-08-14T00:15:41.989Z,42.18
2023-08-14T00:20:45.576Z,42.19
2023-08-14T00:25:47.534Z,42.01
2023-08-14T00:30:49.549Z,42.08
2023-08-14T00:35:51.712Z,41.68
2023-08-14T00:40:54.394Z,41.64
2023-08-14T00:45:57.495Z,41.59
2023-08-14T00:51:00.123Z,41.75
2023-08-14T00:56:04.005Z,41.78
2023-08-14T01:01:07.404Z,41.74
2023-08-14T01:06:09.428Z,41.58
2023-08-14T01:11:20.866Z,41.71
2023-08-14T01:16:28.769Z,41.82
2023-08-14T01:21:59.761Z,41.37
2023-08-14T01:27:02.456Z,41.48
2023-08-14T01:32:04.506Z,41.55
2023-08-14T01:37:24.605Z,41.58
2023-08-14T01:42:33.943Z,41.16
2023-08-14T01:47:36.167Z,41.33
2023-08-14T01:52:38.116Z,41.24
2023-08-14T01:57:40.168Z,41.29
2023-08-14T02:02:42.188Z,41.15
2023-08-14T02:07:44.308Z,41.18
2023-08-14T02:12:46.280Z,41.18
2023-08-14T02:17:48.265Z,41.11
2023-08-14T02:22:50.332Z,41.15
2023-08-14T02:27:52.383Z,41.10
2023-08-14T02:32:54.394Z,41.11
2023-08-14T02:37:56.419Z,40.91
2023-08-14T02:43:00.637Z,40.89
2023-08-14T02:48:02.745Z,41.02
2023-08-14T02:53:04.863Z,40.93
2023-08-14T02:58:06.875Z,40.96
2023-08-14T03:03:08.941Z,41.04
2023-08-14T03:08:10.941Z,40.95
2023-08-14T03:13:12.931Z,40.84
2023-08-14T03:18:14.848Z,40.91
2023-08-14T03:23:16.982Z,40.67
2023-08-14T03:28:18.851Z,40.84
2023-08-14T03:33:20.833Z,40.85
2023-08-14T03:38:22.931Z,40.82
2023-08-14T03:43:24.855Z,40.72
2023-08-14T03:48:26.771Z,40.96
2023-08-14T03:53:28.735Z,40.78
2023-08-14T03:58:30.632Z,40.63
2023-08-14T04:03:32.680Z,40.56
2023-08-14T04:08:34.818Z,40.70
2023-08-14T04:13:36.788Z,40.75
2023-08-14T04:18:38.657Z,40.62
2023-08-14T04:23:40.572Z,40.60
2023-08-14T04:28:42.673Z,40.53
2023-08-14T04:33:44.646Z,40.54
2023-08-14T04:38:46.569Z,40.42
2023-08-14T04:43:48.517Z,40.52
2023-08-14T04:48:50.501Z,40.45
2023-08-14T04:53:52.803Z,40.27
2023-08-14T04:58:55.096Z,40.74
2023-08-14T05:03:57.115Z,40.46
2023-08-14T05:09:00.460Z,40.47
2023-08-14T05:14:04.243Z,40.50
2023-08-14T05:19:06.213Z,40.48
2023-08-14T05:24:08.286Z,40.50
2023-08-14T05:29:10.553Z,40.42
2023-08-14T05:34:12.581Z,40.40
2023-08-14T05:39:19.802Z,40.65
2023-08-14T05:44:21.912Z,40.64
2023-08-14T05:49:23.945Z,40.50
2023-08-14T05:54:26.019Z,40.53
2023-08-14T05:59:27.886Z,40.58
2023-08-14T06:04:29.870Z,40.55
2023-08-14T06:09:31.789Z,40.46
2023-08-14T06:14:33.663Z,40.88
2023-08-14T06:19:35.514Z,40.55
2023-08-14T06:24:37.351Z,40.72
2023-08-14T06:29:39.509Z,40.84
2023-08-14T06:34:41.706Z,40.80
2023-08-14T06:39:43.862Z,40.97
2023-08-14T06:44:46.074Z,40.79
2023-08-14T06:49:47.953Z,40.90
2023-08-14T06:54:49.973Z,40.89
2023-08-14T06:59:51.975Z,40.87
2023-08-14T07:04:53.894Z,40.75
2023-08-14T07:09:56.510Z,40.44
2023-08-14T07:14:58.471Z,40.37
2023-08-14T07:20:00.295Z,40.30
2023-08-14T07:25:02.208Z,40.66
2023-08-14T07:30:06.782Z,40.57
2023-08-14T07:35:08.816Z,40.63
2023-08-14T07:40:11.469Z,40.54
2023-08-14T07:45:13.273Z,40.45
2023-08-14T07:50:15.413Z,40.42
2023-08-14T07:55:17.503Z,40.67
2023-08-14T08:00:21.555Z,40.45
2023-08-14T08:05:23.557Z,40.49
2023-08-14T08:10:25.489Z,40.32
2023-08-14T08:15:27.596Z,40.76
2023-08-14T08:20:29.598Z,40.52
2023-08-14T08:25:31.998Z,40.48
2023-08-14T08:30:33.933Z,40.36
2023-08-14T08:35:35.846Z,40.76
2023-08-14T08:40:37.997Z,40.54
2023-08-14T08:45:45.217Z,40.55
2023-08-14T08:50:47.442Z,40.54
2023-08-14T08:55:50.285Z,40.53
2023-08-14T09:00:53.583Z,39.89
2023-08-14T09:05:55.651Z,41.44
2023-08-14T09:10:57.640Z,41.16
2023-08-14T09:16:01.017Z,40.86
2023-08-14T09:21:03.922Z,40.61
2023-08-14T09:26:06.062Z,40.61
2023-08-14T09:31:09.517Z,40.90
2023-08-14T09:36:13.216Z,41.68
2023-08-14T09:41:15.107Z,41.00
2023-08-14T09:46:19.777Z,41.31
2023-08-14T09:51:21.948Z,41.36
2023-08-14T09:56:24.924Z,40.10
2023-08-14T10:01:27.966Z,40.23
2023-08-14T10:06:29.995Z,41.01
2023-08-14T10:11:34.150Z,39.02
2023-08-14T10:16:39.677Z,40.23
2023-08-14T10:21:44.835Z,40.45
2023-08-14T10:26:47.803Z,40.13
2023-08-14T10:31:50.081Z,39.96
2023-08-14T10:36:55.092Z,39.38
2023-08-14T10:42:00.980Z,39.86
2023-08-14T10:47:13.052Z,40.24
2023-08-14T10:52:16.669Z,38.12
2023-08-14T10:57:19.548Z,39.85
2023-08-14T11:02:21.592Z,39.69
2023-08-14T11:07:27.872Z,39.63
2023-08-14T11:12:29.772Z,39.12
2023-08-14T11:17:31.743Z,39.67
2023-08-14T11:22:33.713Z,39.70
2023-08-14T11:27:35.653Z,39.96
2023-08-14T11:32:37.808Z,40.36
2023-08-14T11:37:39.845Z,40.24
2023-08-14T11:42:41.979Z,40.27
2023-08-14T11:47:51.764Z,40.52
2023-08-14T11:52:54.910Z,40.64
2023-08-14T11:58:00.666Z,40.54
2023-08-14T12:03:02.706Z,40.63
2023-08-14T12:08:05.203Z,40.99
2023-08-14T12:13:07.479Z,41.11
2023-08-14T12:18:14.452Z,41.44
2023-08-14T12:23:17.498Z,42.40
2023-08-14T12:28:20.380Z,42.50
2023-08-14T12:33:22.319Z,42.68
2023-08-14T12:38:24.332Z,42.49
2023-08-14T12:43:36.484Z,42.86
2023-08-14T12:48:41.098Z,42.98
2023-08-14T12:53:43.194Z,43.78
2023-08-14T12:58:48.540Z,43.58
2023-08-14T13:03:51.324Z,43.81
2023-08-14T13:08:53.190Z,43.77
2023-08-14T13:13:55.277Z,44.11
2023-08-14T13:18:57.234Z,44.45
2023-08-14T13:23:59.161Z,44.13
2023-08-14T13:29:01.185Z,44.35
2023-08-14T13:34:03.428Z,44.99
2023-08-14T13:39:07.051Z,44.98
2023-08-14T13:44:09.029Z,45.18
2023-08-14T13:49:11.352Z,45.06
2023-08-14T13:54:13.398Z,45.43
2023-08-14T13:59:15.454Z,45.84
2023-08-14T14:04:17.326Z,45.54
2023-08-14T14:09:19.232Z,45.36
2023-08-14T14:14:21.117Z,45.27
2023-08-14T14:19:23.102Z,45.33
2023-08-14T14:24:26.034Z,45.17
2023-08-14T14:29:31.061Z,44.99
2023-08-14T14:34:33.223Z,45.26
2023-08-14T14:39:35.323Z,45.16
2023-08-14T14:44:37.444Z,45.90
2023-08-14T14:49:39.289Z,46.14
2023-08-14T14:54:41.158Z,46.53
2023-08-14T14:59:43.592Z,46.04
2023-08-14T15:04:46.900Z,46.16
2023-08-14T15:09:48.743Z,45.88
2023-08-14T15:14:50.624Z,45.88
2023-08-14T15:19:52.625Z,45.64
2023-08-14T15:25:00.816Z,45.96
2023-08-14T15:30:03.429Z,45.84
2023-08-14T15:35:05.691Z,46.08
2023-08-14T15:40:08.182Z,46.01
2023-08-14T15:45:12.716Z,46.07
2023-08-14T15:50:16.307Z,45.76
2023-08-14T15:55:18.178Z,46.14
2023-08-14T16:00:20.361Z,46.10
2023-08-14T16:05:22.216Z,46.26
2023-08-14T16:10:24.228Z,46.02
2023-08-14T16:15:26.021Z,46.26
2023-08-14T16:20:27.959Z,46.12
2023-08-14T16:25:29.887Z,46.05
2023-08-14T16:30:34.002Z,46.22
2023-08-14T16:35:36.051Z,46.48
2023-08-14T16:40:43.688Z,46.49
2023-08-14T16:45:49.513Z,46.42
2023-08-14T16:50:52.223Z,46.40
2023-08-14T16:55:54.110Z,46.53
2023-08-14T17:00:55.975Z,46.58
2023-08-14T17:06:05.715Z,46.49
2023-08-14T17:11:07.709Z,46.44
2023-08-14T17:16:12.774Z,47.38
2023-08-14T17:21:15.035Z,47.40
2023-08-14T17:26:17.043Z,47.91
2023-08-14T17:31:18.998Z,47.63
2023-08-14T17:36:21.071Z,47.86
2023-08-14T17:41:22.943Z,48.47
2023-08-14T17:46:24.907Z,48.63
2023-08-14T17:51:27.031Z,48.56
2023-08-14T17:56:29.015Z,48.94
2023-08-14T18:01:33.655Z,49.00
2023-08-14T18:06:36.058Z,49.56
2023-08-14T18:11:38.012Z,49.17
2023-08-14T18:16:40.396Z,49.91
2023-08-14T18:21:42.301Z,50.08
2023-08-14T18:26:44.153Z,50.06
2023-08-14T18:31:46.503Z,50.67
2023-08-14T18:36:51.798Z,50.63
2023-08-14T18:41:53.832Z,50.64
2023-08-14T18:46:55.868Z,52.27
2023-08-14T18:51:57.780Z,53.08
2023-08-14T18:56:59.840Z,51.83
2023-08-14T19:02:01.934Z,51.70
2023-08-14T19:07:03.716Z,51.50
2023-08-14T19:12:07.330Z,51.50
2023-08-14T19:17:09.301Z,51.26
2023-08-14T19:22:16.998Z,51.07
2023-08-14T19:27:19.152Z,51.07
2023-08-14T19:32:21.389Z,50.82
2023-08-14T19:37:23.926Z,50.88
2023-08-14T19:42:26.308Z,50.94
2023-08-14T19:47:29.825Z,51.01
2023-08-14T19:52:31.787Z,50.86
2023-08-14T19:57:33.813Z,51.07
2023-08-14T20:02:35.683Z,50.78
2023-08-14T20:07:37.637Z,50.90
2023-08-14T20:12:39.605Z,51.04
2023-08-14T20:17:41.576Z,51.29
2023-08-14T20:22:43.576Z,51.51
2023-08-14T20:27:45.491Z,51.25
2023-08-14T20:32:47.551Z,51.16
2023-08-14T20:37:49.704Z,51.27
2023-08-14T20:42:51.720Z,51.23
2023-08-14T20:47:53.583Z,51.08
2023-08-14T20:52:55.660Z,50.41
2023-08-14T20:57:57.655Z,50.75
2023-08-14T21:02:59.685Z,50.89
2023-08-14T21:08:01.752Z,51.13
2023-08-14T21:13:04.217Z,51.48
2023-08-14T21:18:09.014Z,51.24
2023-08-14T21:23:13.244Z,51.39
2023-08-14T21:28:15.849Z,51.01
2023-08-14T21:33:17.799Z,51.00
2023-08-14T21:38:19.737Z,50.89
2023-08-14T21:43:21.775Z,50.87
2023-08-14T21:48:23.718Z,50.53
2023-08-14T21:53:25.732Z,50.71
2023-08-14T21:58:27.556Z,50.54
2023-08-14T22:03:29.408Z,50.58
2023-08-14T22:08:31.692Z,50.52
2023-08-14T22:13:33.828Z,50.27
2023-08-14T22:18:35.916Z,50.33
2023-08-14T22:23:37.904Z,50.04
2023-08-14T22:28:40.770Z,50.07
2023-08-14T22:33:46.220Z,50.08
2023-08-14T22:38:48.336Z,49.95
2023-08-14T22:43:50.276Z,50.09
2023-08-14T22:48:52.200Z,50.00
2023-08-14T22:53:54.551Z,49.96
2023-08-14T22:58:56.431Z,49.83
2023-08-14T23:03:59.412Z,49.76
2023-08-14T23:09:01.356Z,50.09
2023-08-14T23:14:03.381Z,49.80
2023-08-14T23:19:05.471Z,49.68
2023-08-14T23:24:07.456Z,49.81
2023-08-14T23:29:09.414Z,49.76
2023-08-14T23:34:11.413Z,49.72
2023-08-14T23:39:13.525Z,49.63
2023-08-14T23:44:15.410Z,49.71
2023-08-14T23:49:17.255Z,49.84
2023-08-14T23:54:19.260Z,49.88
2023-08-14T23:59:21.138Z,49.83
